Haddenham, United Kingdom
Current Conditions -  °F | °C
As of 4:50 PM on Thursday 23 Oct 2014 (Local Time) from EGUB Reporting Station
Broken Clouds Broken Clouds  
Wind Chill: 16°   Ceiling: 2200
Heat Index: 16°   Visibility: 6mi
Dew Point: 12°   Wind: 13mph
Humidity: 77%   Direction: 180°S
Pressure: 30.03"   Gusts: NA
Location:  51.77°N, 0.93°W
Report Text: EGUB 231550Z 18011KT 9999 FEW012 BKN022 16/12 Q1017 WHT NOSIG
Loading
Personal Weather Stations






























Interactive Weather Map
Tropical Storm Tracking
New forecast layout! Learn more

10-Day Weather Forecast

Advertisements
Track Severe Weather on mobile